sensor_id;sensor_type;location;lat;lon;timestamp;P1;durP1;ratioP1;P2;durP2;ratioP2
68455;SDS011;55437;55.046;38.838;2022-09-17T00:00:22;33.10;;;13.20;;
68455;SDS011;55437;55.046;38.838;2022-09-17T00:02:49;29.38;;;12.40;;
68455;SDS011;55437;55.046;38.838;2022-09-17T00:05:16;34.70;;;13.45;;
68455;SDS011;55437;55.046;38.838;2022-09-17T00:07:42;34.15;;;13.15;;
68455;SDS011;55437;55.046;38.838;2022-09-17T00:10:08;41.22;;;12.95;;
68455;SDS011;55437;55.046;38.838;2022-09-17T00:12:33;36.92;;;13.05;;
68455;SDS011;55437;55.046;38.838;2022-09-17T00:14:59;29.20;;;12.27;;
68455;SDS011;55437;55.046;38.838;2022-09-17T00:17:25;31.55;;;12.82;;
68455;SDS011;55437;55.046;38.838;2022-09-17T00:19:50;28.80;;;11.95;;
68455;SDS011;55437;55.046;38.838;2022-09-17T00:22:16;27.40;;;11.68;;
68455;SDS011;55437;55.046;38.838;2022-09-17T00:24:42;30.17;;;11.65;;
68455;SDS011;55437;55.046;38.838;2022-09-17T00:27:07;28.58;;;11.57;;
68455;SDS011;55437;55.046;38.838;2022-09-17T00:29:33;30.13;;;12.10;;
68455;SDS011;55437;55.046;38.838;2022-09-17T00:31:59;29.45;;;12.10;;
68455;SDS011;55437;55.046;38.838;2022-09-17T00:34:25;29.73;;;12.05;;
68455;SDS011;55437;55.046;38.838;2022-09-17T00:36:50;27.20;;;11.32;;
68455;SDS011;55437;55.046;38.838;2022-09-17T00:39:16;28.83;;;12.40;;
68455;SDS011;55437;55.046;38.838;2022-09-17T00:41:42;26.63;;;10.57;;
68455;SDS011;55437;55.046;38.838;2022-09-17T00:49:40;26.63;;;11.63;;
68455;SDS011;55437;55.046;38.838;2022-09-17T00:52:10;24.92;;;10.27;;
68455;SDS011;55437;55.046;38.838;2022-09-17T00:54:39;25.17;;;11.15;;
68455;SDS011;55437;55.046;38.838;2022-09-17T00:57:07;23.73;;;10.32;;
68455;SDS011;55437;55.046;38.838;2022-09-17T00:59:33;23.70;;;10.68;;
68455;SDS011;55437;55.046;38.838;2022-09-17T01:01:59;23.45;;;10.10;;
68455;SDS011;55437;55.046;38.838;2022-09-17T01:04:26;23.15;;;9.93;;
68455;SDS011;55437;55.046;38.838;2022-09-17T01:09:27;23.08;;;9.98;;
68455;SDS011;55437;55.046;38.838;2022-09-17T01:15:02;24.02;;;10.50;;
68455;SDS011;55437;55.046;38.838;2022-09-17T01:18:31;21.30;;;9.02;;
68455;SDS011;55437;55.046;38.838;2022-09-17T01:34:37;23.38;;;9.70;;
68455;SDS011;55437;55.046;38.838;2022-09-17T01:37:29;24.90;;;10.10;;
68455;SDS011;55437;55.046;38.838;2022-09-17T01:40:00;21.45;;;9.95;;
68455;SDS011;55437;55.046;38.838;2022-09-17T01:53:36;22.83;;;9.50;;
68455;SDS011;55437;55.046;38.838;2022-09-17T01:56:13;19.88;;;9.00;;
68455;SDS011;55437;55.046;38.838;2022-09-17T01:58:44;24.48;;;9.32;;
68455;SDS011;55437;55.046;38.838;2022-09-17T02:01:16;21.25;;;8.93;;
68455;SDS011;55437;55.046;38.838;2022-09-17T02:04:04;18.10;;;9.05;;
68455;SDS011;55437;55.046;38.838;2022-09-17T02:06:35;19.50;;;8.65;;
68455;SDS011;55437;55.046;38.838;2022-09-17T02:09:17;23.88;;;10.23;;
68455;SDS011;55437;55.046;38.838;2022-09-17T02:11:50;23.10;;;9.93;;
68455;SDS011;55437;55.046;38.838;2022-09-17T02:14:53;26.02;;;10.85;;
68455;SDS011;55437;55.046;38.838;2022-09-17T02:17:15;22.40;;;9.93;;
68455;SDS011;55437;55.046;38.838;2022-09-17T02:20:07;21.52;;;9.35;;
68455;SDS011;55437;55.046;38.838;2022-09-17T02:28:29;22.17;;;10.02;;
68455;SDS011;55437;55.046;38.838;2022-09-17T02:30:59;21.30;;;9.90;;
68455;SDS011;55437;55.046;38.838;2022-09-17T02:33:25;26.13;;;9.80;;
68455;SDS011;55437;55.046;38.838;2022-09-17T02:35:52;22.63;;;10.43;;
68455;SDS011;55437;55.046;38.838;2022-09-17T02:38:23;21.75;;;9.80;;
68455;SDS011;55437;55.046;38.838;2022-09-17T02:40:50;21.33;;;9.57;;
68455;SDS011;55437;55.046;38.838;2022-09-17T02:43:28;22.55;;;9.65;;
68455;SDS011;55437;55.046;38.838;2022-09-17T02:54:44;18.40;;;9.68;;
68455;SDS011;55437;55.046;38.838;2022-09-17T02:57:25;20.05;;;9.80;;
68455;SDS011;55437;55.046;38.838;2022-09-17T03:02:50;18.00;;;9.38;;
68455;SDS011;55437;55.046;38.838;2022-09-17T03:05:20;21.65;;;10.00;;
68455;SDS011;55437;55.046;38.838;2022-09-17T03:07:47;19.48;;;9.65;;
68455;SDS011;55437;55.046;38.838;2022-09-17T03:10:13;20.60;;;9.85;;
68455;SDS011;55437;55.046;38.838;2022-09-17T03:12:39;18.35;;;9.50;;
68455;SDS011;55437;55.046;38.838;2022-09-17T03:15:05;18.15;;;9.85;;
68455;SDS011;55437;55.046;38.838;2022-09-17T03:17:31;24.88;;;9.88;;
68455;SDS011;55437;55.046;38.838;2022-09-17T03:19:57;19.50;;;9.77;;
68455;SDS011;55437;55.046;38.838;2022-09-17T03:22:22;20.73;;;10.57;;
68455;SDS011;55437;55.046;38.838;2022-09-17T03:24:48;22.30;;;9.75;;
68455;SDS011;55437;55.046;38.838;2022-09-17T03:27:14;18.85;;;9.15;;
68455;SDS011;55437;55.046;38.838;2022-09-17T03:29:39;21.80;;;10.10;;
68455;SDS011;55437;55.046;38.838;2022-09-17T03:32:05;19.80;;;9.32;;
68455;SDS011;55437;55.046;38.838;2022-09-17T03:34:31;18.27;;;9.30;;
68455;SDS011;55437;55.046;38.838;2022-09-17T03:36:57;17.50;;;8.68;;
68455;SDS011;55437;55.046;38.838;2022-09-17T03:39:22;16.83;;;8.40;;
68455;SDS011;55437;55.046;38.838;2022-09-17T03:41:48;18.85;;;8.38;;
68455;SDS011;55437;55.046;38.838;2022-09-17T03:44:14;19.10;;;8.27;;
68455;SDS011;55437;55.046;38.838;2022-09-17T03:46:40;17.95;;;8.93;;
68455;SDS011;55437;55.046;38.838;2022-09-17T03:49:06;16.48;;;8.18;;
68455;SDS011;55437;55.046;38.838;2022-09-17T03:51:33;17.45;;;8.05;;
68455;SDS011;55437;55.046;38.838;2022-09-17T03:53:58;18.42;;;9.40;;
68455;SDS011;55437;55.046;38.838;2022-09-17T03:56:24;16.95;;;8.07;;
68455;SDS011;55437;55.046;38.838;2022-09-17T03:58:51;14.18;;;7.00;;
68455;SDS011;55437;55.046;38.838;2022-09-17T04:01:21;15.40;;;7.38;;
68455;SDS011;55437;55.046;38.838;2022-09-17T04:03:47;17.40;;;7.63;;
68455;SDS011;55437;55.046;38.838;2022-09-17T04:06:13;14.90;;;7.35;;
68455;SDS011;55437;55.046;38.838;2022-09-17T04:08:38;14.32;;;7.35;;
68455;SDS011;55437;55.046;38.838;2022-09-17T04:11:04;15.52;;;6.78;;
68455;SDS011;55437;55.046;38.838;2022-09-17T04:13:32;12.85;;;6.97;;
68455;SDS011;55437;55.046;38.838;2022-09-17T04:15:57;17.35;;;7.25;;
68455;SDS011;55437;55.046;38.838;2022-09-17T04:18:23;12.13;;;6.50;;
68455;SDS011;55437;55.046;38.838;2022-09-17T04:20:49;13.40;;;6.88;;
68455;SDS011;55437;55.046;38.838;2022-09-17T04:23:14;12.63;;;6.75;;
68455;SDS011;55437;55.046;38.838;2022-09-17T04:25:40;11.60;;;6.13;;
68455;SDS011;55437;55.046;38.838;2022-09-17T04:28:06;12.93;;;6.00;;
68455;SDS011;55437;55.046;38.838;2022-09-17T04:30:32;12.70;;;6.35;;
68455;SDS011;55437;55.046;38.838;2022-09-17T04:32:58;11.85;;;6.03;;
68455;SDS011;55437;55.046;38.838;2022-09-17T04:35:24;13.02;;;6.05;;
68455;SDS011;55437;55.046;38.838;2022-09-17T04:37:53;13.50;;;5.85;;
68455;SDS011;55437;55.046;38.838;2022-09-17T04:40:20;13.00;;;6.13;;
68455;SDS011;55437;55.046;38.838;2022-09-17T04:42:47;12.18;;;5.53;;
68455;SDS011;55437;55.046;38.838;2022-09-17T04:45:14;13.50;;;6.00;;
68455;SDS011;55437;55.046;38.838;2022-09-17T04:47:40;11.73;;;5.88;;
68455;SDS011;55437;55.046;38.838;2022-09-17T04:50:05;11.15;;;5.95;;
68455;SDS011;55437;55.046;38.838;2022-09-17T04:52:31;10.15;;;5.30;;
68455;SDS011;55437;55.046;38.838;2022-09-17T04:54:57;15.05;;;6.15;;
68455;SDS011;55437;55.046;38.838;2022-09-17T04:57:23;11.40;;;5.97;;
68455;SDS011;55437;55.046;38.838;2022-09-17T04:59:49;13.38;;;5.85;;
68455;SDS011;55437;55.046;38.838;2022-09-17T05:02:16;14.20;;;5.95;;
68455;SDS011;55437;55.046;38.838;2022-09-17T05:04:41;11.68;;;6.25;;
68455;SDS011;55437;55.046;38.838;2022-09-17T05:07:07;11.65;;;5.22;;
68455;SDS011;55437;55.046;38.838;2022-09-17T05:09:33;12.07;;;5.03;;
68455;SDS011;55437;55.046;38.838;2022-09-17T05:11:59;9.60;;;4.68;;
68455;SDS011;55437;55.046;38.838;2022-09-17T05:14:25;10.05;;;5.07;;
68455;SDS011;55437;55.046;38.838;2022-09-17T05:16:50;11.20;;;5.70;;
68455;SDS011;55437;55.046;38.838;2022-09-17T05:19:16;9.50;;;4.55;;
68455;SDS011;55437;55.046;38.838;2022-09-17T05:21:42;8.68;;;4.10;;
68455;SDS011;55437;55.046;38.838;2022-09-17T05:24:07;10.50;;;4.03;;
68455;SDS011;55437;55.046;38.838;2022-09-17T05:26:33;8.52;;;3.75;;
68455;SDS011;55437;55.046;38.838;2022-09-17T05:28:59;8.02;;;3.70;;
68455;SDS011;55437;55.046;38.838;2022-09-17T05:31:25;8.65;;;3.63;;
68455;SDS011;55437;55.046;38.838;2022-09-17T05:33:51;9.52;;;3.90;;
68455;SDS011;55437;55.046;38.838;2022-09-17T05:36:16;10.32;;;4.28;;
68455;SDS011;55437;55.046;38.838;2022-09-17T05:38:42;11.45;;;3.50;;
68455;SDS011;55437;55.046;38.838;2022-09-17T05:41:08;8.85;;;2.97;;
68455;SDS011;55437;55.046;38.838;2022-09-17T05:43:34;8.73;;;3.45;;
68455;SDS011;55437;55.046;38.838;2022-09-17T05:46:00;9.35;;;3.20;;
68455;SDS011;55437;55.046;38.838;2022-09-17T05:48:27;8.02;;;3.35;;
68455;SDS011;55437;55.046;38.838;2022-09-17T05:50:53;9.48;;;3.75;;
68455;SDS011;55437;55.046;38.838;2022-09-17T05:53:19;7.93;;;3.13;;
68455;SDS011;55437;55.046;38.838;2022-09-17T05:55:46;8.63;;;3.22;;
68455;SDS011;55437;55.046;38.838;2022-09-17T05:58:12;8.68;;;3.30;;
68455;SDS011;55437;55.046;38.838;2022-09-17T06:00:40;8.82;;;3.00;;
68455;SDS011;55437;55.046;38.838;2022-09-17T06:03:10;9.60;;;2.55;;
68455;SDS011;55437;55.046;38.838;2022-09-17T06:05:37;8.80;;;3.20;;
68455;SDS011;55437;55.046;38.838;2022-09-17T06:08:03;11.10;;;3.47;;
68455;SDS011;55437;55.046;38.838;2022-09-17T06:10:30;8.38;;;2.70;;
68455;SDS011;55437;55.046;38.838;2022-09-17T06:12:56;11.00;;;3.30;;
68455;SDS011;55437;55.046;38.838;2022-09-17T06:15:23;10.50;;;3.72;;
68455;SDS011;55437;55.046;38.838;2022-09-17T06:17:50;10.18;;;3.47;;
68455;SDS011;55437;55.046;38.838;2022-09-17T06:20:17;7.90;;;3.35;;
68455;SDS011;55437;55.046;38.838;2022-09-17T06:22:43;8.55;;;2.95;;
68455;SDS011;55437;55.046;38.838;2022-09-17T06:25:09;8.13;;;2.47;;
68455;SDS011;55437;55.046;38.838;2022-09-17T06:27:34;8.90;;;2.67;;
68455;SDS011;55437;55.046;38.838;2022-09-17T06:30:00;8.65;;;3.00;;
68455;SDS011;55437;55.046;38.838;2022-09-17T06:32:28;10.25;;;2.65;;
68455;SDS011;55437;55.046;38.838;2022-09-17T06:34:54;8.45;;;2.50;;
68455;SDS011;55437;55.046;38.838;2022-09-17T06:37:20;8.02;;;2.60;;
68455;SDS011;55437;55.046;38.838;2022-09-17T06:39:52;9.93;;;2.72;;
68455;SDS011;55437;55.046;38.838;2022-09-17T06:42:18;9.50;;;2.33;;
68455;SDS011;55437;55.046;38.838;2022-09-17T06:44:44;10.43;;;2.25;;
68455;SDS011;55437;55.046;38.838;2022-09-17T06:47:10;8.63;;;2.53;;
68455;SDS011;55437;55.046;38.838;2022-09-17T06:49:36;8.00;;;2.20;;
68455;SDS011;55437;55.046;38.838;2022-09-17T06:52:02;11.18;;;2.92;;
68455;SDS011;55437;55.046;38.838;2022-09-17T06:54:28;7.00;;;2.42;;
68455;SDS011;55437;55.046;38.838;2022-09-17T06:56:54;11.77;;;2.88;;
68455;SDS011;55437;55.046;38.838;2022-09-17T06:59:20;8.02;;;2.40;;
68455;SDS011;55437;55.046;38.838;2022-09-17T07:01:46;7.95;;;1.92;;
68455;SDS011;55437;55.046;38.838;2022-09-17T07:04:12;9.38;;;2.28;;
68455;SDS011;55437;55.046;38.838;2022-09-17T07:06:38;6.00;;;2.20;;
68455;SDS011;55437;55.046;38.838;2022-09-17T07:09:04;8.07;;;2.42;;
68455;SDS011;55437;55.046;38.838;2022-09-17T07:11:31;6.60;;;2.22;;
68455;SDS011;55437;55.046;38.838;2022-09-17T07:13:57;8.00;;;1.92;;
68455;SDS011;55437;55.046;38.838;2022-09-17T07:16:24;6.82;;;2.10;;
68455;SDS011;55437;55.046;38.838;2022-09-17T07:18:51;9.50;;;2.25;;
68455;SDS011;55437;55.046;38.838;2022-09-17T07:21:17;7.85;;;2.20;;
68455;SDS011;55437;55.046;38.838;2022-09-17T07:23:45;8.60;;;2.25;;
68455;SDS011;55437;55.046;38.838;2022-09-17T07:26:12;9.55;;;2.30;;
68455;SDS011;55437;55.046;38.838;2022-09-17T07:28:39;11.45;;;2.45;;
68455;SDS011;55437;55.046;38.838;2022-09-17T07:31:06;8.52;;;2.35;;
68455;SDS011;55437;55.046;38.838;2022-09-17T07:33:33;7.07;;;2.10;;
68455;SDS011;55437;55.046;38.838;2022-09-17T07:36:01;10.18;;;2.40;;
68455;SDS011;55437;55.046;38.838;2022-09-17T07:38:28;7.35;;;1.88;;
68455;SDS011;55437;55.046;38.838;2022-09-17T07:40:56;10.48;;;2.00;;
68455;SDS011;55437;55.046;38.838;2022-09-17T07:43:24;10.23;;;2.35;;
68455;SDS011;55437;55.046;38.838;2022-09-17T07:45:51;8.15;;;1.90;;
68455;SDS011;55437;55.046;38.838;2022-09-17T07:48:17;9.52;;;1.98;;
68455;SDS011;55437;55.046;38.838;2022-09-17T07:50:44;8.63;;;1.92;;
68455;SDS011;55437;55.046;38.838;2022-09-17T07:53:10;7.82;;;1.83;;
68455;SDS011;55437;55.046;38.838;2022-09-17T07:55:35;7.30;;;1.73;;
68455;SDS011;55437;55.046;38.838;2022-09-17T07:58:01;8.82;;;1.92;;
68455;SDS011;55437;55.046;38.838;2022-09-17T08:00:27;7.88;;;2.05;;
68455;SDS011;55437;55.046;38.838;2022-09-17T08:02:54;7.65;;;1.90;;
68455;SDS011;55437;55.046;38.838;2022-09-17T08:05:20;8.73;;;1.90;;
68455;SDS011;55437;55.046;38.838;2022-09-17T08:07:50;7.10;;;1.83;;
68455;SDS011;55437;55.046;38.838;2022-09-17T08:10:16;7.15;;;1.80;;
68455;SDS011;55437;55.046;38.838;2022-09-17T08:12:50;7.22;;;1.77;;
68455;SDS011;55437;55.046;38.838;2022-09-17T08:15:19;7.28;;;2.00;;
68455;SDS011;55437;55.046;38.838;2022-09-17T08:17:46;5.97;;;1.95;;
68455;SDS011;55437;55.046;38.838;2022-09-17T08:20:12;9.80;;;1.90;;
68455;SDS011;55437;55.046;38.838;2022-09-17T08:22:40;8.43;;;1.90;;
68455;SDS011;55437;55.046;38.838;2022-09-17T08:25:06;10.15;;;2.35;;
68455;SDS011;55437;55.046;38.838;2022-09-17T08:27:32;9.98;;;1.90;;
68455;SDS011;55437;55.046;38.838;2022-09-17T08:29:58;10.90;;;2.50;;
68455;SDS011;55437;55.046;38.838;2022-09-17T08:32:24;8.65;;;1.90;;
68455;SDS011;55437;55.046;38.838;2022-09-17T08:34:50;7.75;;;1.95;;
68455;SDS011;55437;55.046;38.838;2022-09-17T08:37:18;6.35;;;2.03;;
68455;SDS011;55437;55.046;38.838;2022-09-17T08:39:44;9.10;;;1.73;;
68455;SDS011;55437;55.046;38.838;2022-09-17T08:42:11;9.88;;;2.10;;
68455;SDS011;55437;55.046;38.838;2022-09-17T08:44:48;7.60;;;1.73;;
68455;SDS011;55437;55.046;38.838;2022-09-17T08:49:54;11.15;;;2.25;;
68455;SDS011;55437;55.046;38.838;2022-09-17T08:55:25;13.18;;;2.10;;
68455;SDS011;55437;55.046;38.838;2022-09-17T09:06:35;10.35;;;2.17;;
68455;SDS011;55437;55.046;38.838;2022-09-17T09:09:10;10.25;;;1.73;;
68455;SDS011;55437;55.046;38.838;2022-09-17T09:11:40;8.93;;;1.80;;
68455;SDS011;55437;55.046;38.838;2022-09-17T09:14:18;9.25;;;3.35;;
68455;SDS011;55437;55.046;38.838;2022-09-17T09:16:49;8.18;;;1.77;;
68455;SDS011;55437;55.046;38.838;2022-09-17T09:24:27;6.30;;;1.55;;
68455;SDS011;55437;55.046;38.838;2022-09-17T09:35:29;5.85;;;1.48;;
68455;SDS011;55437;55.046;38.838;2022-09-17T09:38:03;7.72;;;1.70;;
68455;SDS011;55437;55.046;38.838;2022-09-17T09:40:55;7.68;;;2.50;;
68455;SDS011;55437;55.046;38.838;2022-09-17T09:43:34;5.60;;;1.70;;
68455;SDS011;55437;55.046;38.838;2022-09-17T09:56:58;8.95;;;2.03;;
68455;SDS011;55437;55.046;38.838;2022-09-17T09:59:32;7.30;;;1.60;;
68455;SDS011;55437;55.046;38.838;2022-09-17T10:02:00;6.60;;;1.67;;
68455;SDS011;55437;55.046;38.838;2022-09-17T10:04:27;11.85;;;1.77;;
68455;SDS011;55437;55.046;38.838;2022-09-17T10:06:59;8.18;;;2.33;;
68455;SDS011;55437;55.046;38.838;2022-09-17T10:09:28;6.88;;;1.52;;
68455;SDS011;55437;55.046;38.838;2022-09-17T10:12:18;7.20;;;1.77;;
68455;SDS011;55437;55.046;38.838;2022-09-17T10:14:44;5.50;;;1.70;;
68455;SDS011;55437;55.046;38.838;2022-09-17T10:22:36;6.40;;;1.77;;
68455;SDS011;55437;55.046;38.838;2022-09-17T10:25:05;8.23;;;2.05;;
68455;SDS011;55437;55.046;38.838;2022-09-17T10:27:44;7.03;;;1.67;;
68455;SDS011;55437;55.046;38.838;2022-09-17T10:32:39;8.38;;;1.65;;
68455;SDS011;55437;55.046;38.838;2022-09-17T10:37:44;6.18;;;1.48;;
68455;SDS011;55437;55.046;38.838;2022-09-17T10:42:45;6.30;;;1.50;;
68455;SDS011;55437;55.046;38.838;2022-09-17T10:45:33;7.30;;;1.73;;
68455;SDS011;55437;55.046;38.838;2022-09-17T10:48:11;5.28;;;1.33;;
68455;SDS011;55437;55.046;38.838;2022-09-17T10:50:40;9.35;;;2.05;;
68455;SDS011;55437;55.046;38.838;2022-09-17T10:53:14;7.40;;;1.75;;
68455;SDS011;55437;55.046;38.838;2022-09-17T10:58:30;5.68;;;1.73;;
68455;SDS011;55437;55.046;38.838;2022-09-17T11:01:28;8.85;;;2.05;;
68455;SDS011;55437;55.046;38.838;2022-09-17T11:12:57;5.72;;;1.52;;
68455;SDS011;55437;55.046;38.838;2022-09-17T11:15:47;9.23;;;1.50;;
68455;SDS011;55437;55.046;38.838;2022-09-17T11:27:54;4.45;;;1.30;;
68455;SDS011;55437;55.046;38.838;2022-09-17T11:30:25;8.25;;;1.63;;
68455;SDS011;55437;55.046;38.838;2022-09-17T11:35:51;7.53;;;1.23;;
68455;SDS011;55437;55.046;38.838;2022-09-17T11:41:19;6.82;;;1.60;;
68455;SDS011;55437;55.046;38.838;2022-09-17T11:57:20;9.48;;;1.70;;
68455;SDS011;55437;55.046;38.838;2022-09-17T12:00:11;7.00;;;1.75;;
68455;SDS011;55437;55.046;38.838;2022-09-17T12:05:35;8.00;;;1.60;;
68455;SDS011;55437;55.046;38.838;2022-09-17T12:11:00;6.15;;;1.42;;
68455;SDS011;55437;55.046;38.838;2022-09-17T12:13:53;6.18;;;1.50;;
68455;SDS011;55437;55.046;38.838;2022-09-17T12:16:25;9.25;;;1.95;;
68455;SDS011;55437;55.046;38.838;2022-09-17T12:24:50;6.55;;;1.80;;
68455;SDS011;55437;55.046;38.838;2022-09-17T12:27:23;6.60;;;1.50;;
68455;SDS011;55437;55.046;38.838;2022-09-17T12:38:31;11.00;;;2.50;;
68455;SDS011;55437;55.046;38.838;2022-09-17T12:48:53;7.90;;;1.95;;
68455;SDS011;55437;55.046;38.838;2022-09-17T12:51:36;6.72;;;1.77;;
68455;SDS011;55437;55.046;38.838;2022-09-17T13:16:07;6.90;;;1.70;;
68455;SDS011;55437;55.046;38.838;2022-09-17T13:21:08;6.47;;;1.45;;
68455;SDS011;55437;55.046;38.838;2022-09-17T13:23:46;6.82;;;1.50;;
68455;SDS011;55437;55.046;38.838;2022-09-17T13:26:15;7.18;;;1.83;;
68455;SDS011;55437;55.046;38.838;2022-09-17T13:28:48;6.07;;;1.60;;
68455;SDS011;55437;55.046;38.838;2022-09-17T13:34:00;8.80;;;1.83;;
68455;SDS011;55437;55.046;38.838;2022-09-17T13:42:01;7.07;;;1.55;;
68455;SDS011;55437;55.046;38.838;2022-09-17T13:44:36;5.70;;;1.52;;
68455;SDS011;55437;55.046;38.838;2022-09-17T13:47:17;8.05;;;1.52;;
68455;SDS011;55437;55.046;38.838;2022-09-17T13:49:48;6.53;;;1.52;;
68455;SDS011;55437;55.046;38.838;2022-09-17T13:55:07;7.28;;;1.70;;
68455;SDS011;55437;55.046;38.838;2022-09-17T13:57:43;5.93;;;1.48;;
68455;SDS011;55437;55.046;38.838;2022-09-17T14:06:57;6.90;;;1.70;;
68455;SDS011;55437;55.046;38.838;2022-09-17T14:09:28;9.20;;;1.73;;
68455;SDS011;55437;55.046;38.838;2022-09-17T14:17:57;8.45;;;1.80;;
68455;SDS011;55437;55.046;38.838;2022-09-17T14:20:23;5.80;;;1.50;;
68455;SDS011;55437;55.046;38.838;2022-09-17T14:22:57;7.45;;;1.83;;
68455;SDS011;55437;55.046;38.838;2022-09-17T14:28:17;6.63;;;1.83;;
68455;SDS011;55437;55.046;38.838;2022-09-17T14:45:18;5.22;;;1.85;;
68455;SDS011;55437;55.046;38.838;2022-09-17T14:47:54;8.57;;;2.50;;
68455;SDS011;55437;55.046;38.838;2022-09-17T14:50:43;8.25;;;3.60;;
68455;SDS011;55437;55.046;38.838;2022-09-17T14:53:16;9.52;;;1.75;;
68455;SDS011;55437;55.046;38.838;2022-09-17T14:55:48;10.13;;;2.17;;
68455;SDS011;55437;55.046;38.838;2022-09-17T14:58:27;10.40;;;2.22;;
68455;SDS011;55437;55.046;38.838;2022-09-17T15:00:59;9.63;;;2.50;;
68455;SDS011;55437;55.046;38.838;2022-09-17T15:03:27;8.05;;;2.03;;
68455;SDS011;55437;55.046;38.838;2022-09-17T15:05:53;7.85;;;2.10;;
68455;SDS011;55437;55.046;38.838;2022-09-17T15:08:23;8.07;;;2.40;;
68455;SDS011;55437;55.046;38.838;2022-09-17T15:11:02;10.85;;;2.28;;
68455;SDS011;55437;55.046;38.838;2022-09-17T15:13:46;7.45;;;1.80;;
68455;SDS011;55437;55.046;38.838;2022-09-17T15:16:24;8.70;;;2.22;;
68455;SDS011;55437;55.046;38.838;2022-09-17T15:19:01;10.23;;;2.47;;
68455;SDS011;55437;55.046;38.838;2022-09-17T15:24:02;9.77;;;2.50;;
68455;SDS011;55437;55.046;38.838;2022-09-17T15:26:52;10.90;;;4.55;;
68455;SDS011;55437;55.046;38.838;2022-09-17T15:29:22;12.15;;;2.90;;
68455;SDS011;55437;55.046;38.838;2022-09-17T15:31:53;9.90;;;2.85;;
68455;SDS011;55437;55.046;38.838;2022-09-17T15:34:19;10.70;;;2.67;;
68455;SDS011;55437;55.046;38.838;2022-09-17T15:39:41;13.23;;;2.50;;
68455;SDS011;55437;55.046;38.838;2022-09-17T15:42:30;8.82;;;2.20;;
68455;SDS011;55437;55.046;38.838;2022-09-17T15:45:07;10.23;;;2.45;;
68455;SDS011;55437;55.046;38.838;2022-09-17T15:50:23;9.63;;;2.90;;
68455;SDS011;55437;55.046;38.838;2022-09-17T15:55:31;7.78;;;2.50;;
68455;SDS011;55437;55.046;38.838;2022-09-17T15:58:04;7.80;;;2.53;;
68455;SDS011;55437;55.046;38.838;2022-09-17T16:00:46;7.88;;;2.60;;
68455;SDS011;55437;55.046;38.838;2022-09-17T16:08:55;7.40;;;2.05;;
68455;SDS011;55437;55.046;38.838;2022-09-17T16:11:26;7.93;;;1.60;;
68455;SDS011;55437;55.046;38.838;2022-09-17T16:13:57;7.03;;;1.80;;
68455;SDS011;55437;55.046;38.838;2022-09-17T16:21:23;5.55;;;2.00;;
68455;SDS011;55437;55.046;38.838;2022-09-17T16:23:50;7.40;;;2.08;;
68455;SDS011;55437;55.046;38.838;2022-09-17T16:26:19;11.60;;;2.38;;
68455;SDS011;55437;55.046;38.838;2022-09-17T16:28:48;8.88;;;2.35;;
68455;SDS011;55437;55.046;38.838;2022-09-17T16:31:21;12.82;;;3.05;;
68455;SDS011;55437;55.046;38.838;2022-09-17T16:33:51;6.47;;;1.98;;
68455;SDS011;55437;55.046;38.838;2022-09-17T16:36:17;8.13;;;2.58;;
68455;SDS011;55437;55.046;38.838;2022-09-17T16:38:47;6.97;;;2.97;;
68455;SDS011;55437;55.046;38.838;2022-09-17T16:41:16;7.60;;;1.90;;
68455;SDS011;55437;55.046;38.838;2022-09-17T16:43:46;7.68;;;2.95;;
68455;SDS011;55437;55.046;38.838;2022-09-17T16:46:12;8.10;;;2.47;;
68455;SDS011;55437;55.046;38.838;2022-09-17T16:48:40;6.97;;;1.80;;
68455;SDS011;55437;55.046;38.838;2022-09-17T16:51:11;8.55;;;2.30;;
68455;SDS011;55437;55.046;38.838;2022-09-17T16:53:40;11.55;;;2.58;;
68455;SDS011;55437;55.046;38.838;2022-09-17T16:56:07;8.38;;;2.20;;
68455;SDS011;55437;55.046;38.838;2022-09-17T16:58:34;8.27;;;2.47;;
68455;SDS011;55437;55.046;38.838;2022-09-17T17:01:12;8.35;;;2.63;;
68455;SDS011;55437;55.046;38.838;2022-09-17T17:03:41;11.13;;;2.22;;
68455;SDS011;55437;55.046;38.838;2022-09-17T17:06:17;6.80;;;2.28;;
68455;SDS011;55437;55.046;38.838;2022-09-17T17:08:45;7.70;;;2.38;;
68455;SDS011;55437;55.046;38.838;2022-09-17T17:11:12;7.57;;;2.10;;
68455;SDS011;55437;55.046;38.838;2022-09-17T17:13:45;6.82;;;2.50;;
68455;SDS011;55437;55.046;38.838;2022-09-17T17:16:14;8.23;;;2.40;;
68455;SDS011;55437;55.046;38.838;2022-09-17T17:18:41;8.52;;;3.33;;
68455;SDS011;55437;55.046;38.838;2022-09-17T17:21:09;7.75;;;2.42;;
68455;SDS011;55437;55.046;38.838;2022-09-17T17:23:39;9.13;;;2.38;;
68455;SDS011;55437;55.046;38.838;2022-09-17T17:26:32;10.20;;;2.80;;
68455;SDS011;55437;55.046;38.838;2022-09-17T17:28:59;8.82;;;2.67;;
68455;SDS011;55437;55.046;38.838;2022-09-17T17:31:27;8.60;;;2.42;;
68455;SDS011;55437;55.046;38.838;2022-09-17T17:33:53;11.52;;;2.60;;
68455;SDS011;55437;55.046;38.838;2022-09-17T17:36:24;8.98;;;2.65;;
68455;SDS011;55437;55.046;38.838;2022-09-17T17:38:59;8.55;;;2.75;;
68455;SDS011;55437;55.046;38.838;2022-09-17T17:41:26;9.43;;;3.05;;
68455;SDS011;55437;55.046;38.838;2022-09-17T17:43:53;8.35;;;2.92;;
68455;SDS011;55437;55.046;38.838;2022-09-17T17:46:20;8.35;;;2.78;;
68455;SDS011;55437;55.046;38.838;2022-09-17T17:48:51;9.30;;;2.63;;
68455;SDS011;55437;55.046;38.838;2022-09-17T17:51:17;8.52;;;2.60;;
68455;SDS011;55437;55.046;38.838;2022-09-17T17:53:44;6.88;;;2.25;;
68455;SDS011;55437;55.046;38.838;2022-09-17T17:56:11;6.65;;;2.60;;
68455;SDS011;55437;55.046;38.838;2022-09-17T17:58:38;9.25;;;2.50;;
68455;SDS011;55437;55.046;38.838;2022-09-17T18:01:09;9.88;;;2.63;;
68455;SDS011;55437;55.046;38.838;2022-09-17T18:03:40;9.40;;;2.95;;
68455;SDS011;55437;55.046;38.838;2022-09-17T18:06:07;10.70;;;2.85;;
68455;SDS011;55437;55.046;38.838;2022-09-17T18:08:35;7.85;;;2.42;;
68455;SDS011;55437;55.046;38.838;2022-09-17T18:11:02;8.65;;;2.83;;
68455;SDS011;55437;55.046;38.838;2022-09-17T18:13:30;11.60;;;2.92;;
68455;SDS011;55437;55.046;38.838;2022-09-17T18:15:58;8.65;;;2.70;;
68455;SDS011;55437;55.046;38.838;2022-09-17T18:18:36;9.27;;;2.65;;
68455;SDS011;55437;55.046;38.838;2022-09-17T18:21:13;13.38;;;3.45;;
68455;SDS011;55437;55.046;38.838;2022-09-17T18:23:44;7.95;;;2.65;;
68455;SDS011;55437;55.046;38.838;2022-09-17T18:26:15;9.93;;;3.60;;
68455;SDS011;55437;55.046;38.838;2022-09-17T18:28:54;11.38;;;3.08;;
68455;SDS011;55437;55.046;38.838;2022-09-17T18:36:25;8.25;;;2.78;;
68455;SDS011;55437;55.046;38.838;2022-09-17T18:38:56;10.93;;;3.67;;
68455;SDS011;55437;55.046;38.838;2022-09-17T18:41:27;10.98;;;3.38;;
68455;SDS011;55437;55.046;38.838;2022-09-17T18:43:57;9.85;;;3.42;;
68455;SDS011;55437;55.046;38.838;2022-09-17T18:46:26;8.48;;;3.25;;
68455;SDS011;55437;55.046;38.838;2022-09-17T18:48:53;8.55;;;3.10;;
68455;SDS011;55437;55.046;38.838;2022-09-17T18:51:22;11.38;;;3.80;;
68455;SDS011;55437;55.046;38.838;2022-09-17T18:53:50;10.00;;;3.72;;
68455;SDS011;55437;55.046;38.838;2022-09-17T18:56:28;10.93;;;3.40;;
68455;SDS011;55437;55.046;38.838;2022-09-17T18:59:00;10.68;;;3.13;;
68455;SDS011;55437;55.046;38.838;2022-09-17T19:01:30;9.00;;;3.30;;
68455;SDS011;55437;55.046;38.838;2022-09-17T19:04:00;8.52;;;2.90;;
68455;SDS011;55437;55.046;38.838;2022-09-17T19:06:27;14.18;;;3.53;;
68455;SDS011;55437;55.046;38.838;2022-09-17T19:08:59;9.25;;;3.20;;